Terminal Aerodrome Forecast
Issued by NWS Wilmington, OH

Home | Current Version | Previous Version | Text Only | Print | Product List | Glossary On
Versions: 1 2 3 4 5 6 7 8 9 10 11 12 13 14 15 16 17 18 19 20 21
000
FTUS41 KILN 262347 CCA
TAFDAY
TAF COR
KDAY 262347Z 2700/2724 18004KT P6SM BKN140
     FM270200 03008KT 5SM SHRA VCTS OVC040CB
      TEMPO 2703/2705 2SM TSRA OVC015CB
     FM270600 17006KT P6SM VCTS BKN045CB
     FM270900 15004KT P6SM BKN015
     FM271900 04005KT P6SM BKN035=

USA.gov is the U.S. government's official web portal to all federal, state and local government web resources and services.